createdAt,value
2023-04-26T00:00:29.381Z,5.29
2023-04-26T00:01:29.339Z,5.29
2023-04-26T00:02:29.434Z,5.26
2023-04-26T00:03:29.427Z,5.28
2023-04-26T00:04:29.720Z,5.26
2023-04-26T00:05:29.314Z,5.26
2023-04-26T00:06:29.279Z,5.23
2023-04-26T00:07:29.263Z,5.21
2023-04-26T00:08:29.269Z,5.20
2023-04-26T00:09:29.242Z,5.20
2023-04-26T00:10:29.232Z,5.18
2023-04-26T00:11:29.219Z,5.14
2023-04-26T00:12:29.207Z,5.14
2023-04-26T00:13:29.201Z,5.12
2023-04-26T00:14:29.186Z,5.12
2023-04-26T00:15:29.160Z,5.11
2023-04-26T00:16:29.199Z,5.11
2023-04-26T00:17:29.183Z,5.08
2023-04-26T00:18:29.138Z,5.07
2023-04-26T00:19:29.112Z,5.07
2023-04-26T00:20:29.106Z,5.05
2023-04-26T00:21:29.083Z,5.04
2023-04-26T00:22:29.076Z,5.04
2023-04-26T00:23:29.073Z,5.02
2023-04-26T00:24:29.051Z,4.99
2023-04-26T00:25:29.031Z,4.97
2023-04-26T00:26:29.026Z,4.97
2023-04-26T00:27:29.059Z,4.96
2023-04-26T00:28:29.013Z,4.93
2023-04-26T00:29:28.979Z,4.93
2023-04-26T00:30:28.974Z,4.92
2023-04-26T00:31:28.986Z,4.90
2023-04-26T00:32:28.997Z,4.89
2023-04-26T00:33:28.962Z,4.89
2023-04-26T00:34:28.931Z,4.87
2023-04-26T00:35:28.907Z,4.86
2023-04-26T00:36:28.894Z,4.84
2023-04-26T00:37:28.890Z,4.82
2023-04-26T00:38:28.914Z,4.82
2023-04-26T00:39:28.855Z,4.78
2023-04-26T00:40:28.852Z,4.77
2023-04-26T00:41:28.858Z,4.78
2023-04-26T00:42:28.832Z,4.74
2023-04-26T00:43:28.830Z,4.74
2023-04-26T00:44:28.797Z,4.71
2023-04-26T00:45:28.825Z,4.73
2023-04-26T00:46:28.861Z,4.70
2023-04-26T00:47:28.791Z,4.68
2023-04-26T00:48:28.770Z,4.68
2023-04-26T00:49:28.727Z,4.67
2023-04-26T00:50:28.728Z,4.66
2023-04-26T00:51:28.704Z,4.66
2023-04-26T00:52:28.724Z,4.66
2023-04-26T00:53:28.703Z,4.63
2023-04-26T00:54:28.693Z,4.62
2023-04-26T00:55:28.685Z,4.60
2023-04-26T00:56:28.647Z,4.59
2023-04-26T00:57:28.637Z,4.60
2023-04-26T00:58:28.637Z,4.58
2023-04-26T00:59:28.606Z,4.58
2023-04-26T01:00:28.601Z,4.56
2023-04-26T01:01:28.607Z,4.55
2023-04-26T01:02:28.752Z,4.52
2023-04-26T01:03:28.687Z,4.52
2023-04-26T01:04:35.572Z,4.49
2023-04-26T01:05:35.554Z,4.49
2023-04-26T01:06:35.572Z,4.48
2023-04-26T01:07:35.509Z,4.44
2023-04-26T01:08:37.193Z,4.44
2023-04-26T01:09:28.478Z,4.44
2023-04-26T01:10:28.494Z,4.42
2023-04-26T01:11:28.454Z,4.41
2023-04-26T01:12:28.443Z,4.41
2023-04-26T01:13:28.451Z,4.38
2023-04-26T01:14:28.423Z,4.37
2023-04-26T01:15:28.395Z,4.37
2023-04-26T01:16:28.457Z,4.37
2023-04-26T01:17:28.484Z,4.35
2023-04-26T01:18:28.384Z,4.35
2023-04-26T01:19:28.361Z,4.32
2023-04-26T01:20:28.340Z,4.32
2023-04-26T01:21:28.332Z,4.32
2023-04-26T01:22:28.313Z,4.30
2023-04-26T01:23:28.321Z,4.31
2023-04-26T01:24:28.291Z,4.28
2023-04-26T01:25:28.289Z,4.26
2023-04-26T01:26:28.266Z,4.28
2023-04-26T01:27:28.263Z,4.24
2023-04-26T01:28:28.246Z,4.23
2023-04-26T01:29:28.220Z,4.22
2023-04-26T01:30:28.211Z,4.22
2023-04-26T01:31:28.342Z,4.20
2023-04-26T01:32:28.186Z,4.19
2023-04-26T01:33:28.186Z,4.19
2023-04-26T01:34:28.162Z,4.17
2023-04-26T01:35:28.143Z,4.17
2023-04-26T01:36:28.140Z,4.16
2023-04-26T01:37:28.121Z,4.14
2023-04-26T01:38:28.136Z,4.13
2023-04-26T01:39:28.102Z,4.14
2023-04-26T01:40:28.079Z,4.13
2023-04-26T01:41:28.070Z,4.12
2023-04-26T01:42:28.058Z,4.12
2023-04-26T01:43:28.035Z,4.10
2023-04-26T01:44:28.045Z,4.08
2023-04-26T01:45:28.013Z,4.08
2023-04-26T01:46:28.188Z,4.06
2023-04-26T01:47:27.989Z,4.05
2023-04-26T01:48:27.974Z,4.04
2023-04-26T01:49:27.972Z,4.02
2023-04-26T01:50:27.955Z,4.02
2023-04-26T01:51:27.944Z,4.01
2023-04-26T01:52:27.935Z,3.99
2023-04-26T01:53:27.911Z,3.99
2023-04-26T01:54:27.918Z,3.98
2023-04-26T01:55:27.883Z,3.98
2023-04-26T01:56:27.871Z,3.96
2023-04-26T01:57:27.861Z,3.95
2023-04-26T01:58:27.849Z,3.94
2023-04-26T01:59:27.855Z,3.92
2023-04-26T02:00:27.827Z,3.92
2023-04-26T02:01:27.835Z,3.92
2023-04-26T02:02:27.812Z,3.91
2023-04-26T02:03:27.835Z,3.88
2023-04-26T02:04:27.824Z,3.87
2023-04-26T02:05:27.933Z,3.88
2023-04-26T02:06:27.750Z,3.84
2023-04-26T02:07:27.729Z,3.84
2023-04-26T02:08:27.759Z,3.84
2023-04-26T02:09:27.736Z,3.83
2023-04-26T02:10:27.696Z,3.81
2023-04-26T02:11:27.708Z,3.80
2023-04-26T02:12:27.675Z,3.78
2023-04-26T02:13:27.658Z,3.78
2023-04-26T02:14:27.683Z,3.80
2023-04-26T02:15:27.629Z,3.77
2023-04-26T02:16:27.696Z,3.76
2023-04-26T02:17:27.676Z,3.76
2023-04-26T02:18:27.598Z,3.73
2023-04-26T02:19:27.605Z,3.73
2023-04-26T02:20:27.627Z,3.73
2023-04-26T02:21:27.578Z,3.70
2023-04-26T02:22:27.539Z,3.69
2023-04-26T02:23:27.536Z,3.68
2023-04-26T02:24:27.523Z,3.66
2023-04-26T02:25:27.511Z,3.68
2023-04-26T02:26:27.494Z,3.65
2023-04-26T02:27:27.494Z,3.65
2023-04-26T02:28:27.470Z,3.65
2023-04-26T02:29:40.244Z,3.63
2023-04-26T02:30:28.439Z,3.66
2023-04-26T02:31:27.499Z,3.63
2023-04-26T02:32:27.484Z,3.62
2023-04-26T02:33:27.432Z,3.60
2023-04-26T02:34:27.403Z,3.59
2023-04-26T02:35:27.367Z,3.60
2023-04-26T02:36:28.392Z,3.59
2023-04-26T02:37:27.353Z,3.59
2023-04-26T02:38:27.343Z,3.56
2023-04-26T02:39:27.337Z,3.56
2023-04-26T02:40:27.300Z,3.56
2023-04-26T02:41:27.300Z,3.55
2023-04-26T02:42:27.277Z,3.55
2023-04-26T02:43:27.266Z,3.55
2023-04-26T02:44:27.262Z,3.53
2023-04-26T02:45:27.245Z,3.55
2023-04-26T02:46:27.251Z,3.53
2023-04-26T02:47:27.253Z,3.50
2023-04-26T02:48:27.204Z,3.48
2023-04-26T02:49:27.200Z,3.48
2023-04-26T02:50:27.170Z,3.48
2023-04-26T02:51:27.185Z,3.47
2023-04-26T02:52:27.144Z,3.44
2023-04-26T02:53:27.144Z,3.45
2023-04-26T02:54:27.133Z,3.44
2023-04-26T02:55:27.119Z,3.42
2023-04-26T02:56:27.096Z,3.42
2023-04-26T02:57:27.078Z,3.41
2023-04-26T02:58:27.063Z,3.40
2023-04-26T02:59:27.070Z,3.40
2023-04-26T03:00:27.038Z,3.40
2023-04-26T03:01:27.088Z,3.37
2023-04-26T03:02:27.196Z,3.37
2023-04-26T03:03:27.147Z,3.37
2023-04-26T03:04:26.999Z,3.34
2023-04-26T03:05:26.984Z,3.34
2023-04-26T03:06:26.965Z,3.34
2023-04-26T03:07:26.952Z,3.34
2023-04-26T03:08:26.938Z,3.32
2023-04-26T03:09:26.942Z,3.34
2023-04-26T03:10:26.929Z,3.32
2023-04-26T03:11:26.908Z,3.31
2023-04-26T03:12:26.880Z,3.29
2023-04-26T03:13:26.895Z,3.29
2023-04-26T03:14:26.875Z,3.29
2023-04-26T03:15:26.848Z,3.28
2023-04-26T03:16:26.867Z,3.28
2023-04-26T03:17:26.910Z,3.28
2023-04-26T03:18:26.817Z,3.28
2023-04-26T03:19:26.817Z,3.26
2023-04-26T03:20:26.782Z,3.26
2023-04-26T03:21:26.775Z,3.25
2023-04-26T03:22:26.760Z,3.23
2023-04-26T03:23:26.753Z,3.23
2023-04-26T03:24:26.756Z,3.19
2023-04-26T03:25:26.720Z,3.22
2023-04-26T03:26:26.702Z,3.22
2023-04-26T03:27:27.018Z,3.22
2023-04-26T03:28:26.681Z,3.22
2023-04-26T03:29:26.671Z,3.19
2023-04-26T03:30:26.672Z,3.21
2023-04-26T03:31:26.699Z,3.21
2023-04-26T03:32:26.660Z,3.19
2023-04-26T03:33:26.628Z,3.21
2023-04-26T03:34:26.601Z,3.19
2023-04-26T03:35:26.619Z,3.18
2023-04-26T03:36:26.589Z,3.19
2023-04-26T03:37:26.570Z,3.19
2023-04-26T03:38:26.551Z,3.19
2023-04-26T03:39:26.550Z,3.21
2023-04-26T03:40:26.538Z,3.21
2023-04-26T03:41:26.529Z,3.19
2023-04-26T03:42:26.558Z,3.19
2023-04-26T03:43:26.512Z,3.19
2023-04-26T03:44:26.478Z,3.18
2023-04-26T03:45:26.487Z,3.21
2023-04-26T03:46:26.474Z,3.21
2023-04-26T03:47:26.469Z,3.21
2023-04-26T03:48:26.426Z,3.19
2023-04-26T03:49:26.421Z,3.18
2023-04-26T03:50:26.425Z,3.18
2023-04-26T03:51:26.399Z,3.19
2023-04-26T03:52:26.375Z,3.19
2023-04-26T03:53:26.361Z,3.19
2023-04-26T03:54:26.372Z,3.18
2023-04-26T03:55:26.380Z,3.18
2023-04-26T03:56:26.334Z,3.18
2023-04-26T03:57:26.312Z,3.19
2023-04-26T03:58:26.322Z,3.18
2023-04-26T03:59:26.296Z,3.19
2023-04-26T04:00:26.296Z,3.18
2023-04-26T04:01:26.276Z,3.18
2023-04-26T04:02:26.369Z,3.18
2023-04-26T04:03:26.390Z,3.16
2023-04-26T04:04:26.546Z,3.18
2023-04-26T04:05:26.278Z,3.18
2023-04-26T04:06:26.190Z,3.18
2023-04-26T04:07:26.195Z,3.16
2023-04-26T04:08:26.172Z,3.16
2023-04-26T04:09:26.171Z,3.18
2023-04-26T04:10:26.160Z,3.18
2023-04-26T04:11:26.138Z,3.18
2023-04-26T04:12:26.124Z,3.16
2023-04-26T04:13:26.109Z,3.14
2023-04-26T04:14:26.098Z,3.16
2023-04-26T04:15:26.095Z,3.18
2023-04-26T04:16:26.148Z,3.16
2023-04-26T04:17:26.073Z,3.16
2023-04-26T04:18:26.040Z,3.16
2023-04-26T04:19:26.038Z,3.18
2023-04-26T04:20:26.020Z,3.19
2023-04-26T04:21:26.001Z,3.19
2023-04-26T04:22:25.983Z,3.19
2023-04-26T04:23:25.978Z,3.19
2023-04-26T04:24:25.958Z,3.19
2023-04-26T04:25:25.969Z,3.21
2023-04-26T04:26:25.928Z,3.22
2023-04-26T04:27:25.921Z,3.22
2023-04-26T04:28:25.912Z,3.22
2023-04-26T04:29:25.899Z,3.22
2023-04-26T04:30:25.900Z,3.22
2023-04-26T04:31:25.910Z,3.23
2023-04-26T04:32:25.864Z,3.23
2023-04-26T04:33:25.850Z,3.26
2023-04-26T04:34:25.823Z,3.25
2023-04-26T04:35:25.834Z,3.26
2023-04-26T04:36:25.809Z,3.29
2023-04-26T04:37:25.806Z,3.28
2023-04-26T04:38:25.780Z,3.29
2023-04-26T04:39:25.770Z,3.29
2023-04-26T04:40:25.767Z,3.31
2023-04-26T04:41:25.746Z,3.31
2023-04-26T04:42:25.730Z,3.32
2023-04-26T04:43:25.730Z,3.32
2023-04-26T04:44:25.704Z,3.32
2023-04-26T04:45:25.705Z,3.36
2023-04-26T04:46:25.693Z,3.36
2023-04-26T04:47:25.692Z,3.37
2023-04-26T04:48:25.653Z,3.37
2023-04-26T04:49:25.635Z,3.40
2023-04-26T04:50:25.641Z,3.41
2023-04-26T04:51:25.620Z,3.44
2023-04-26T04:52:25.612Z,3.42
2023-04-26T04:53:25.600Z,3.45
2023-04-26T04:54:25.572Z,3.45
2023-04-26T04:55:25.578Z,3.45
2023-04-26T04:56:25.550Z,3.47
2023-04-26T04:57:25.550Z,3.48
2023-04-26T04:58:25.528Z,3.48
2023-04-26T04:59:25.510Z,3.50
2023-04-26T05:00:25.517Z,3.51
2023-04-26T05:01:25.562Z,3.53
2023-04-26T05:02:25.762Z,3.55
2023-04-26T05:03:25.536Z,3.55
2023-04-26T05:04:25.578Z,3.58
2023-04-26T05:05:25.486Z,3.58
2023-04-26T05:06:25.429Z,3.59
2023-04-26T05:07:26.354Z,3.60
2023-04-26T05:08:25.409Z,3.62
2023-04-26T05:09:25.396Z,3.63
2023-04-26T05:10:25.390Z,3.66
2023-04-26T05:11:25.378Z,3.68
2023-04-26T05:12:25.347Z,3.70
2023-04-26T05:13:25.336Z,3.70
2023-04-26T05:14:25.319Z,3.74
2023-04-26T05:15:25.352Z,3.76
2023-04-26T05:16:25.365Z,3.77
2023-04-26T05:17:25.369Z,3.80
2023-04-26T05:18:25.277Z,3.83
2023-04-26T05:19:25.265Z,3.86
2023-04-26T05:20:25.247Z,3.88
2023-04-26T05:21:25.256Z,3.91
2023-04-26T05:22:25.218Z,3.94
2023-04-26T05:23:25.222Z,3.96
2023-04-26T05:24:25.198Z,3.98
2023-04-26T05:25:25.191Z,4.01
2023-04-26T05:26:25.208Z,4.05
2023-04-26T05:27:25.168Z,4.10
2023-04-26T05:28:25.172Z,4.12
2023-04-26T05:29:25.145Z,4.14
2023-04-26T05:30:25.143Z,4.19
2023-04-26T05:31:25.200Z,4.22
2023-04-26T05:32:25.090Z,4.26
2023-04-26T05:33:25.087Z,4.30
2023-04-26T05:34:25.079Z,4.34
2023-04-26T05:35:25.070Z,4.38
2023-04-26T05:36:25.215Z,4.40
2023-04-26T05:37:25.037Z,4.45
2023-04-26T05:38:25.028Z,4.49
2023-04-26T05:39:25.007Z,4.53
2023-04-26T05:40:24.993Z,4.56
2023-04-26T05:41:25.005Z,4.59
2023-04-26T05:42:24.964Z,4.62
2023-04-26T05:43:24.960Z,4.66
2023-04-26T05:44:24.949Z,4.70
2023-04-26T05:45:24.995Z,4.74
2023-04-26T05:46:24.977Z,4.75
2023-04-26T05:47:24.913Z,4.78
2023-04-26T05:48:24.894Z,4.82
2023-04-26T05:49:24.886Z,4.86
2023-04-26T05:50:24.877Z,4.89
2023-04-26T05:51:24.871Z,4.92
2023-04-26T05:52:24.854Z,4.94
2023-04-26T05:53:24.828Z,4.97
2023-04-26T05:54:24.814Z,5.00
2023-04-26T05:55:24.813Z,5.05
2023-04-26T05:56:24.802Z,5.08
2023-04-26T05:57:24.828Z,5.11
2023-04-26T05:58:24.758Z,5.17
2023-04-26T05:59:24.752Z,5.20
2023-04-26T06:00:24.746Z,5.28
2023-04-26T06:01:24.752Z,5.30
2023-04-26T06:02:24.879Z,5.36
2023-04-26T06:03:25.007Z,5.39
2023-04-26T06:04:24.798Z,5.46
2023-04-26T06:05:24.739Z,5.50
2023-04-26T06:06:24.668Z,5.56
2023-04-26T06:07:24.699Z,5.59
2023-04-26T06:08:24.627Z,5.65
2023-04-26T06:09:24.621Z,5.69
2023-04-26T06:10:24.609Z,5.72
2023-04-26T06:11:24.615Z,5.79
2023-04-26T06:12:24.576Z,5.84
2023-04-26T06:13:24.599Z,5.93
2023-04-26T06:15:24.546Z,6.12
2023-04-26T06:16:24.595Z,6.19
2023-04-26T06:17:24.606Z,6.24
2023-04-26T06:18:24.498Z,6.28
2023-04-26T06:19:24.495Z,6.35
2023-04-26T06:20:24.477Z,6.42
2023-04-26T06:21:24.479Z,6.48
2023-04-26T06:22:24.447Z,6.59
2023-04-26T06:23:24.473Z,6.70
2023-04-26T06:24:24.425Z,6.74
2023-04-26T06:25:24.410Z,6.78
2023-04-26T06:26:24.413Z,6.82
2023-04-26T06:27:24.388Z,6.96
2023-04-26T06:28:24.374Z,7.24
2023-04-26T06:29:24.365Z,7.54
2023-04-26T06:30:24.349Z,7.88
2023-04-26T06:31:24.475Z,8.13
2023-04-26T06:32:24.356Z,8.26
2023-04-26T06:33:24.354Z,8.30
2023-04-26T06:34:24.377Z,8.31
2023-04-26T06:35:24.275Z,8.38
2023-04-26T06:36:24.285Z,8.64
2023-04-26T06:37:24.254Z,8.91
2023-04-26T06:38:24.254Z,9.14
2023-04-26T06:39:24.235Z,9.25
2023-04-26T06:40:24.223Z,9.34
2023-04-26T06:41:24.251Z,9.40
2023-04-26T06:42:24.197Z,9.44
2023-04-26T06:43:24.179Z,9.51
2023-04-26T06:44:24.226Z,9.62
2023-04-26T06:45:24.153Z,9.89
2023-04-26T06:46:24.187Z,9.98
2023-04-26T06:47:24.126Z,9.98
2023-04-26T06:48:24.109Z,10.10
2023-04-26T06:49:31.613Z,10.35
2023-04-26T06:50:24.165Z,10.63
2023-04-26T06:51:24.093Z,10.93
2023-04-26T06:52:24.069Z,11.23
2023-04-26T06:53:24.046Z,11.55
2023-04-26T06:54:24.060Z,11.83
2023-04-26T06:55:24.106Z,11.91
2023-04-26T06:56:24.035Z,11.90
2023-04-26T06:57:24.022Z,11.80
2023-04-26T06:58:23.999Z,11.72
2023-04-26T06:59:23.973Z,11.66
2023-04-26T07:00:23.960Z,11.65
2023-04-26T07:01:24.043Z,11.86
2023-04-26T07:02:24.216Z,12.12
2023-04-26T07:03:24.081Z,12.43
2023-04-26T07:04:24.159Z,12.62
2023-04-26T07:05:23.975Z,12.78
2023-04-26T07:06:23.895Z,13.01
2023-04-26T07:07:23.885Z,13.25
2023-04-26T07:08:23.858Z,13.53
2023-04-26T07:09:23.849Z,13.68
2023-04-26T07:10:23.844Z,13.78
2023-04-26T07:11:25.790Z,13.97
2023-04-26T07:12:23.807Z,14.12
2023-04-26T07:13:23.793Z,14.23
2023-04-26T07:14:23.788Z,14.44
2023-04-26T07:15:23.759Z,14.73
2023-04-26T07:16:23.774Z,14.85
2023-04-26T07:17:23.742Z,14.82
2023-04-26T07:18:23.732Z,14.73
2023-04-26T07:19:23.710Z,14.66
2023-04-26T07:20:23.701Z,14.59
2023-04-26T07:21:23.698Z,14.53
2023-04-26T07:22:23.679Z,14.47
2023-04-26T07:23:23.660Z,14.40
2023-04-26T07:24:23.656Z,14.35
2023-04-26T07:25:23.626Z,14.28
2023-04-26T07:26:23.642Z,14.20
2023-04-26T07:27:23.615Z,14.15
2023-04-26T07:28:23.598Z,14.08
2023-04-26T07:29:23.605Z,14.05
2023-04-26T07:30:23.573Z,14.03
2023-04-26T07:31:23.593Z,14.11
2023-04-26T07:32:23.630Z,14.33
2023-04-26T07:33:23.676Z,14.41
2023-04-26T07:34:23.522Z,14.40
2023-04-26T07:35:23.514Z,14.32
2023-04-26T07:36:25.054Z,14.22
2023-04-26T07:37:23.498Z,14.15
2023-04-26T07:38:23.482Z,14.14
2023-04-26T07:39:23.490Z,14.10
2023-04-26T07:40:23.469Z,14.08
2023-04-26T07:41:23.474Z,14.12
2023-04-26T07:42:23.437Z,14.23
2023-04-26T07:43:23.413Z,14.50
2023-04-26T07:44:23.388Z,14.88
2023-04-26T07:45:23.406Z,15.28
2023-04-26T07:46:32.054Z,15.72
2023-04-26T07:47:30.374Z,16.16
2023-04-26T07:48:31.857Z,16.38
2023-04-26T07:49:30.847Z,16.36
2023-04-26T07:50:30.816Z,16.26
2023-04-26T07:51:23.322Z,16.12
2023-04-26T07:52:23.291Z,16.05
2023-04-26T07:53:23.263Z,16.13
2023-04-26T07:54:23.259Z,16.13
2023-04-26T07:55:23.258Z,16.36
2023-04-26T07:56:23.261Z,16.47
2023-04-26T07:57:23.231Z,16.71
2023-04-26T07:58:30.703Z,17.02
2023-04-26T07:59:30.700Z,17.41
2023-04-26T08:00:23.186Z,17.80
2023-04-26T08:01:23.179Z,18.11
2023-04-26T08:02:29.890Z,18.33
2023-04-26T08:03:24.328Z,18.45
2023-04-26T08:04:23.364Z,18.59
2023-04-26T08:05:23.523Z,18.80
2023-04-26T08:06:23.128Z,19.04
2023-04-26T08:07:23.093Z,18.96
2023-04-26T08:08:23.110Z,19.00
2023-04-26T08:09:23.064Z,18.81
2023-04-26T08:10:23.052Z,18.58
2023-04-26T08:11:23.056Z,18.31
2023-04-26T08:12:23.051Z,18.11
2023-04-26T08:13:23.017Z,18.01
2023-04-26T08:14:23.003Z,17.89
2023-04-26T08:15:22.983Z,17.95
2023-04-26T08:16:23.013Z,18.07
2023-04-26T08:17:22.982Z,18.38
2023-04-26T08:18:22.944Z,18.81
2023-04-26T08:19:22.969Z,19.24
2023-04-26T08:20:22.933Z,19.51
2023-04-26T08:21:22.897Z,19.85
2023-04-26T08:22:22.909Z,19.96
2023-04-26T08:23:22.890Z,19.81
2023-04-26T08:24:22.863Z,19.56
2023-04-26T08:25:22.850Z,19.29
2023-04-26T08:26:22.838Z,18.98
2023-04-26T08:27:22.846Z,18.70
2023-04-26T08:28:22.814Z,18.43
2023-04-26T08:29:22.799Z,18.20
2023-04-26T08:30:22.808Z,18.20
2023-04-26T08:31:22.896Z,17.85
2023-04-26T08:32:22.836Z,17.74
2023-04-26T08:33:22.748Z,17.65
2023-04-26T08:34:22.731Z,17.57
2023-04-26T08:35:22.718Z,17.65
2023-04-26T08:36:22.711Z,17.67
2023-04-26T08:37:22.705Z,18.50
2023-04-26T08:38:22.920Z,18.49
2023-04-26T08:39:22.680Z,18.84
2023-04-26T08:40:22.701Z,18.84
2023-04-26T08:41:22.645Z,19.36
2023-04-26T08:42:22.658Z,19.24
2023-04-26T08:43:22.621Z,19.04
2023-04-26T08:44:22.606Z,18.86
2023-04-26T08:45:22.587Z,18.84
2023-04-26T08:46:22.619Z,19.08
2023-04-26T08:47:22.586Z,19.48
2023-04-26T08:48:22.559Z,19.99
2023-04-26T08:49:22.537Z,20.50
2023-04-26T08:50:22.593Z,20.84
2023-04-26T08:51:22.509Z,20.84
2023-04-26T08:52:22.520Z,20.66
2023-04-26T08:53:22.503Z,20.40
2023-04-26T08:54:22.480Z,20.40
2023-04-26T08:55:22.504Z,20.16
2023-04-26T08:56:22.449Z,19.89
2023-04-26T08:57:22.452Z,19.41
2023-04-26T08:58:22.458Z,19.22
2023-04-26T08:59:22.421Z,19.24
2023-04-26T09:00:22.416Z,18.88
2023-04-26T09:01:22.452Z,18.70
2023-04-26T09:02:22.762Z,18.49
2023-04-26T09:03:22.529Z,18.29
2023-04-26T09:04:22.600Z,18.15
2023-04-26T09:05:22.335Z,18.16
2023-04-26T09:06:22.319Z,17.92
2023-04-26T09:07:22.336Z,17.89
2023-04-26T09:08:22.295Z,18.16
2023-04-26T09:09:22.272Z,18.58
2023-04-26T09:10:22.510Z,19.02
2023-04-26T09:11:22.252Z,19.30
2023-04-26T09:12:22.258Z,19.36
2023-04-26T09:13:22.228Z,19.30
2023-04-26T09:14:22.215Z,19.31
2023-04-26T09:15:22.218Z,19.08
2023-04-26T09:16:22.286Z,18.92
2023-04-26T09:17:22.259Z,18.77
2023-04-26T09:18:22.173Z,18.59
2023-04-26T09:19:22.153Z,18.45
2023-04-26T09:20:22.232Z,18.45
2023-04-26T09:21:22.127Z,18.22
2023-04-26T09:22:22.129Z,18.13
2023-04-26T09:23:22.097Z,18.29
2023-04-26T09:24:22.084Z,18.41
2023-04-26T09:25:24.293Z,18.44
2023-04-26T09:26:22.058Z,18.44
2023-04-26T09:27:22.053Z,18.49
2023-04-26T09:28:22.025Z,18.44
2023-04-26T09:29:22.015Z,18.45
2023-04-26T09:30:22.003Z,18.31
2023-04-26T09:31:22.010Z,18.23
2023-04-26T09:32:21.990Z,18.16
2023-04-26T09:33:21.981Z,18.07
2023-04-26T09:34:21.961Z,18.01
2023-04-26T09:35:21.947Z,17.98
2023-04-26T09:36:21.930Z,18.01
2023-04-26T09:37:21.924Z,18.07
2023-04-26T09:38:21.920Z,18.11
2023-04-26T09:39:21.882Z,18.11
2023-04-26T09:40:21.937Z,18.10
2023-04-26T09:41:21.855Z,18.11
2023-04-26T09:42:21.855Z,18.25
2023-04-26T09:43:21.880Z,18.22
2023-04-26T09:44:21.832Z,18.16
2023-04-26T09:45:21.814Z,18.19
2023-04-26T09:46:21.851Z,18.08
2023-04-26T09:47:21.805Z,17.87
2023-04-26T09:48:21.784Z,17.76
2023-04-26T09:49:21.753Z,17.64
2023-04-26T09:50:21.748Z,17.67
2023-04-26T09:51:21.728Z,17.52
2023-04-26T09:52:21.737Z,17.33
2023-04-26T09:53:21.699Z,17.26
2023-04-26T09:54:21.691Z,17.27
2023-04-26T09:55:33.640Z,17.19
2023-04-26T09:56:22.663Z,17.11
2023-04-26T09:57:21.654Z,17.05
2023-04-26T09:58:21.639Z,16.99
2023-04-26T09:59:21.625Z,16.99
2023-04-26T10:00:21.615Z,16.96
2023-04-26T10:01:21.662Z,16.89
2023-04-26T10:02:21.634Z,16.89
2023-04-26T10:03:21.706Z,17.04
2023-04-26T10:04:21.656Z,17.04
2023-04-26T10:05:21.548Z,17.06
2023-04-26T10:06:21.534Z,17.09
2023-04-26T10:07:21.509Z,17.04
2023-04-26T10:08:21.518Z,16.99
2023-04-26T10:09:21.482Z,16.99
2023-04-26T10:10:21.487Z,16.94
2023-04-26T10:11:21.457Z,16.90
2023-04-26T10:12:21.449Z,16.90
2023-04-26T10:13:21.466Z,16.91
2023-04-26T10:14:21.420Z,16.93
2023-04-26T10:15:21.408Z,17.34
2023-04-26T10:16:21.513Z,17.80
2023-04-26T10:17:21.391Z,17.78
2023-04-26T10:18:21.391Z,18.01
2023-04-26T10:19:21.355Z,18.19
2023-04-26T10:20:21.352Z,18.22
2023-04-26T10:21:21.325Z,18.50
2023-04-26T10:22:21.321Z,18.70
2023-04-26T10:23:21.332Z,18.88
2023-04-26T10:24:21.304Z,18.99
2023-04-26T10:25:21.280Z,19.14
2023-04-26T10:26:21.264Z,19.11
2023-04-26T10:27:21.248Z,19.02
2023-04-26T10:28:21.258Z,18.93
2023-04-26T10:29:21.271Z,18.95
2023-04-26T10:30:21.212Z,18.98
2023-04-26T10:31:21.230Z,18.90
2023-04-26T10:32:21.178Z,18.92
2023-04-26T10:33:21.245Z,18.70
2023-04-26T10:34:21.159Z,18.58
2023-04-26T10:35:21.150Z,18.47
2023-04-26T10:36:21.162Z,18.45
2023-04-26T10:37:21.137Z,18.25
2023-04-26T10:38:21.126Z,18.28
2023-04-26T10:39:21.099Z,18.10
2023-04-26T10:40:21.079Z,18.01
2023-04-26T10:41:21.074Z,17.95
2023-04-26T10:42:21.895Z,17.94
2023-04-26T10:43:21.056Z,17.72
2023-04-26T10:44:21.031Z,17.60
2023-04-26T10:45:21.019Z,17.49
2023-04-26T10:46:21.054Z,17.51
2023-04-26T10:47:21.021Z,17.29
2023-04-26T10:48:20.998Z,17.16
2023-04-26T10:49:20.961Z,17.06
2023-04-26T10:50:20.950Z,16.99
2023-04-26T10:51:20.949Z,16.91
2023-04-26T10:52:20.925Z,16.90
2023-04-26T10:53:20.927Z,16.76
2023-04-26T10:54:20.900Z,16.75
2023-04-26T10:55:20.893Z,16.66
2023-04-26T10:56:20.881Z,16.65
2023-04-26T10:57:20.879Z,16.61
2023-04-26T10:58:20.887Z,16.57
2023-04-26T11:00:20.853Z,16.71
2023-04-26T11:01:20.857Z,16.90
2023-04-26T11:02:20.829Z,16.90
2023-04-26T11:03:20.953Z,16.91
2023-04-26T11:04:20.954Z,16.93
2023-04-26T11:05:20.767Z,16.86
2023-04-26T11:06:20.758Z,16.78
2023-04-26T11:07:20.750Z,16.81
2023-04-26T11:08:20.737Z,16.65
2023-04-26T11:09:20.749Z,16.57
2023-04-26T11:10:20.712Z,16.50
2023-04-26T11:11:20.724Z,16.41
2023-04-26T11:12:20.680Z,16.33
2023-04-26T11:13:20.723Z,16.26
2023-04-26T11:14:20.640Z,16.20
2023-04-26T11:15:20.639Z,16.21
2023-04-26T11:16:20.708Z,16.10
2023-04-26T11:17:20.647Z,16.05
2023-04-26T11:18:20.608Z,16.05
2023-04-26T11:19:20.598Z,16.02
2023-04-26T11:20:20.573Z,16.01
2023-04-26T11:21:20.555Z,16.00
2023-04-26T11:22:20.542Z,16.00
2023-04-26T11:23:20.541Z,15.98
2023-04-26T11:24:20.517Z,16.01
2023-04-26T11:25:20.510Z,16.02
2023-04-26T11:26:20.626Z,16.12
2023-04-26T11:27:20.480Z,16.13
2023-04-26T11:28:20.602Z,16.20
2023-04-26T11:29:20.591Z,16.20
2023-04-26T11:30:20.433Z,16.26
2023-04-26T11:31:20.478Z,16.28
2023-04-26T11:32:20.428Z,16.24
2023-04-26T11:33:20.397Z,16.26
2023-04-26T11:34:20.404Z,16.24
2023-04-26T11:35:20.391Z,16.21
2023-04-26T11:36:20.355Z,16.17
2023-04-26T11:37:20.364Z,16.16
2023-04-26T11:38:20.346Z,16.13
2023-04-26T11:39:20.358Z,16.10
2023-04-26T11:40:20.319Z,16.09
2023-04-26T11:41:20.302Z,16.04
2023-04-26T11:42:20.290Z,16.05
2023-04-26T11:43:20.306Z,16.00
2023-04-26T11:44:20.271Z,15.97
2023-04-26T11:45:20.274Z,15.94
2023-04-26T11:46:20.307Z,15.97
2023-04-26T11:47:20.242Z,15.92
2023-04-26T11:48:20.324Z,15.90
2023-04-26T11:49:20.222Z,15.86
2023-04-26T11:50:20.211Z,15.84
2023-04-26T11:51:20.180Z,15.86
2023-04-26T11:52:20.162Z,15.84
2023-04-26T11:53:20.165Z,15.88
2023-04-26T11:54:20.145Z,15.88
2023-04-26T11:55:20.131Z,15.91
2023-04-26T11:56:20.133Z,15.91
2023-04-26T11:57:20.102Z,15.98
2023-04-26T11:58:20.077Z,16.02
2023-04-26T11:59:20.091Z,16.05
2023-04-26T12:00:20.157Z,16.20
2023-04-26T12:01:20.077Z,16.17
2023-04-26T12:02:20.080Z,16.41
2023-04-26T12:03:20.336Z,16.64
2023-04-26T12:04:20.246Z,17.06
2023-04-26T12:05:20.004Z,17.08
2023-04-26T12:06:20.024Z,17.30
2023-04-26T12:07:19.966Z,17.51
2023-04-26T12:08:19.947Z,17.86
2023-04-26T12:09:19.948Z,17.86
2023-04-26T12:10:19.923Z,17.90
2023-04-26T12:11:19.938Z,17.97
2023-04-26T12:12:19.889Z,17.97
2023-04-26T12:13:19.875Z,17.97
2023-04-26T12:14:19.882Z,17.98
2023-04-26T12:15:19.863Z,17.97
2023-04-26T12:16:26.327Z,18.15
2023-04-26T12:17:20.934Z,18.23
2023-04-26T12:18:19.851Z,18.34
2023-04-26T12:19:19.810Z,18.45
2023-04-26T12:20:19.770Z,18.45
2023-04-26T12:21:19.779Z,18.75
2023-04-26T12:22:19.760Z,18.77
2023-04-26T12:23:19.767Z,19.09
2023-04-26T12:24:19.738Z,19.08
2023-04-26T12:25:19.735Z,19.39
2023-04-26T12:26:19.711Z,19.37
2023-04-26T12:27:19.707Z,19.62
2023-04-26T12:28:19.702Z,19.71
2023-04-26T12:29:19.672Z,19.81
2023-04-26T12:30:19.667Z,19.94
2023-04-26T12:31:19.679Z,20.07
2023-04-26T12:32:21.929Z,20.07
2023-04-26T12:33:19.649Z,20.26
2023-04-26T12:34:19.610Z,20.31
2023-04-26T12:35:19.594Z,20.36
2023-04-26T12:36:19.569Z,20.44
2023-04-26T12:37:19.562Z,20.52
2023-04-26T12:38:19.564Z,20.65
2023-04-26T12:39:19.536Z,20.65
2023-04-26T12:40:19.546Z,20.93
2023-04-26T12:41:19.516Z,21.03
2023-04-26T12:42:19.495Z,21.20
2023-04-26T12:43:19.483Z,21.18
2023-04-26T12:44:21.873Z,21.55
2023-04-26T12:45:19.485Z,21.72
2023-04-26T12:46:19.497Z,21.92
2023-04-26T12:47:19.429Z,22.13
2023-04-26T12:48:19.455Z,22.32
2023-04-26T12:49:19.419Z,22.45
2023-04-26T12:50:19.400Z,22.47
2023-04-26T12:51:19.398Z,22.53
2023-04-26T12:52:19.389Z,22.51
2023-04-26T12:53:19.392Z,22.44
2023-04-26T12:54:19.368Z,22.26
2023-04-26T12:55:19.337Z,22.06
2023-04-26T12:56:19.315Z,21.88
2023-04-26T12:57:19.319Z,21.85
2023-04-26T12:58:19.301Z,21.70
2023-04-26T12:59:19.290Z,21.57
2023-04-26T13:00:19.262Z,21.48
2023-04-26T13:01:19.309Z,21.32
2023-04-26T13:02:19.319Z,21.22
2023-04-26T13:03:19.403Z,21.22
2023-04-26T13:04:19.394Z,21.02
2023-04-26T13:05:19.221Z,21.05
2023-04-26T13:06:19.177Z,21.06
2023-04-26T13:07:19.208Z,21.03